PARDEE (PAR)

Elevation: 568' · MOKELUMNE R basin · Operator: East Bay Municipal Utility District

Provisional data, subject to change.
Query executed Friday at 9:20:59

Select a sensor type for a plot of data.
Note: Reservoir Flows are daily averages.

Earlier

Date RES ELE    STORAGE    RES CHG    OUTFLOW    INFLOW    PPT INC   
 FEET   AF   AF   CFS   CFS   INCHES  
11/10/2016 561.64 190666 -115 633 338 11552.00
11/11/2016 561.60 190585 -81 641 389 11318.00
11/12/2016 561.55 190474 -111 621 362 11012.00
11/13/2016 562.03 191516 1042 76 132 10807.00
11/14/2016 561.94 191319 -197 640 645 10527.00
11/15/2016 561.90 191238 -81 625 320 10285.00
11/16/2016 561.89 191208 -30 615 364 0.01
11/17/2016 561.87 191157 -51 610 363 0.00
11/18/2016 561.82 191063 -94 626 371 0.00
11/19/2016 561.84 191110 47 618 364 0.23
11/20/2016 562.33 192152 1042 84 182 0.81
11/21/2016 562.26 192006 -146 618 645 0.14
11/22/2016 562.12 191709 -297 608 322 0.00
11/23/2016 562.14 191748 39 615 288 --
11/24/2016 562.08 191615 -133 611 394 0.00
11/25/2016 562.01 191469 -146 591 292 0.00
11/26/2016 561.97 191387 -82 615 303 0.73
11/27/2016 562.52 192565 1178 82 192 0.30
11/28/2016 562.59 192711 146 502 648 0.05
11/29/2016 562.61 192758 47 515 292 0.00
11/30/2016 563.06 193726 968 94 181 0.00
12/01/2016 563.21 194038 312 505 567 0.00
12/02/2016 563.68 195059 1021 85 230 0.00
12/03/2016 563.44 194548 -511 877 765 0.00
12/04/2016 563.59 194860 312 336 190 0.00
12/05/2016 563.13 193873 -987 955 683 0.00
12/06/2016 562.80 193158 -715 956 384 0.00
12/07/2016 562.60 192732 -426 954 443 0.11
12/08/2016 562.40 192303 -429 941 514 --
12/09/2016 -- -- -- -- -- --

Later | Latest

Warning! This data is preliminary and subject to revision.

Show PAR Map | Plot PAR Data | 1 Month PAR Data | Real-Time PAR Data | PAR Info